• Join FlightAware (Why Join?)
  • Login
  • US Flag 
Gobble Gobble! 
05:41AM EST


 

Airport Tracker/Info


-or-


 

Live Flight TrackerFlight Track Log ✈ N147SW ✈ 17-Apr-2014 ✈ KDAL - KAUS

Flight Track Log - Related Links

Times and Time Zones

All times are in EDT time to prevent confusion due to time zone crossing. See the N147SW flight status page for this flight to view local times or setup timezone preferences in your user account.

Time Position Orientation Groundspeed Altitude Reporting Facility
EDT Latitude Longitude Course Direction KTS MPH feet Rate Location/Type
03:48PM 32.7833 -96.7500 174° South 259 298 5,000  Level Dallas / Fort Worth TRACON
03:49PM 32.6831 -96.7369 174° South 274 315 8,600 2,160 Climbing Fort Worth Center
03:50PM 32.6078 -96.7556 192° South 289 333 10,300 2,220 Climbing Fort Worth Center
03:51PM 32.5397 -96.8161 217° Southwest 288 331 13,300 2,640 Climbing Fort Worth Center
03:52PM 32.4553 -96.8381 192° South 310 357 15,800 2,340 Climbing Fort Worth Center
03:53PM 32.3611 -96.8656 194° South 324 373 18,200 2,280 Climbing Fort Worth Center
03:54PM 32.2694 -96.8939 195° South 339 390 20,600 1,740 Climbing Fort Worth Center
03:56PM 32.1856 -96.9175 193° South 348 400 21,900 660 Climbing Fort Worth Center
03:57PM 32.0553 -96.9569 194° South 406 467 22,000  Climbing Fort Worth Center
03:58PM 31.9492 -96.9878 194° South 429 494 22,000  Level Fort Worth Center
03:59PM 31.8286 -97.0258 195° South 446 513 22,000  Level Fort Worth Center
04:00PM 31.6811 -97.0692 194° South 456 525 22,000  Level Fort Worth Center
04:01PM 31.5589 -97.1050 194° South 456 525 22,000  Level Fort Worth Center
04:02PM 31.4353 -97.1419 194° South 456 525 22,000 -720 Level Fort Worth Center
04:03PM 31.3131 -97.1775 194° South 455 524 20,600 -1,500 Descending Fort Worth Center
04:04PM 31.1986 -97.2122 195° South 431 496 18,900 -1,920 Descending Fort Worth Center
04:05PM 31.0639 -97.2656 199° South 426 490 16,700 -1,980 Descending Fort Worth Center
04:06PM 30.9558 -97.3103 200° South 430 495 14,900 -1,800 Descending Fort Worth Center
04:07PM 30.8506 -97.3475 197° South 412 474 13,100 -1,200 Descending Houston Center
04:08PM 30.7506 -97.4008 205° Southwest 399 459 12,500 -1,260 Descending Houston Center
04:09PM 30.6611 -97.4719 214° Southwest 396 456 10,600 -1,200 Descending Houston Center
04:10PM 30.5844 -97.5319 214° Southwest 339 390 10,000 -1,380 Descending Houston Center
04:11PM 30.5067 -97.5844 210° Southwest 279 321 7,800 -2,040 Descending Houston Center
04:12PM 30.4414 -97.6275 210° Southwest 273 314 5,800 -1,980 Descending Houston Center
04:13PM 30.3769 -97.6647 206° Southwest 265 305 3,800 -1,680 Descending Houston Center
04:14PM 30.3056 -97.6603 177° South 261 300 2,400 -1,140 Descending Houston Center
04:15PM 30.2411 -97.6586 179° South 246 283 1,500 -720 Descending Houston Center
04:16PM 30.1875 -97.6603 182° South 220 253 1,000 -480 Descending Houston Center
04:18PM 30.1833 -97.6667 210° Southwest  Level FlightAware Approximate
04:25PM 30.1945 -97.6699 210° Southwest  Level Estimated